Latest Weather Observations for Tarcoola

IDS60801

Issued at 3:11 pm CDT Saturday 10 December 2022 (issued every 10 minutes, with the page automatically refreshed every 10 minutes)

About weather observations | Map of weather stations | Latest weather observations for SA | Other Formats
Station Details ID: 016098 Name: TARCOOLA AERO Lat: -30.71 Lon: 134.58 Height: 123.0 m
Data from the previous 72 hours. | See also: Recent months at Tarcoola
Date/Time
CDT
Temp
°C
App
Temp
°C
Dew
Point
°C
Rel
Hum
%
Delta-T
°C
Wind Press
QNH
hPa
Press
MSL
hPa
Rain since
9am
mm
Dir  Spd
km/h
Gust
km/h
Spd
kts
Gust
kts
10/03:08pm 41.4 37.3 2.2 9 21.0 WNW 13 37 7 20 1005.3 1004.6 0.0
10/03:00pm 40.4 36.9 1.4 9 20.5 WNW 9 17 5 9 1005.9 1005.2 0.0
10/02:30pm 39.4 35.8 0.7 9 20.0 WNW 9 17 5 9 1006.4 1005.7 0.0
10/02:00pm 39.5 35.5 0.8 9 20.0 N 11 20 6 11 1006.9 1006.2 0.0
10/01:30pm 39.7 34.8 -0.7 8 20.5 NW 15 35 8 19 1007.3 1006.6 0.0
10/01:00pm 38.3 32.1 -0.1 9 19.4 NNW 22 33 12 18 1007.9 1007.2 0.0
10/12:30pm 37.9 31.1 -2.0 8 19.6 NNW 24 32 13 17 1008.2 1007.5 0.0
10/12:00pm 36.6 29.3 -3.0 8 19.0 NNW 26 39 14 21 1008.7 1008.1 0.0
10/11:30am 36.0 28.8 -1.8 9 18.4 N 26 37 14 20 1009.0 1008.4 0.0
10/11:00am 34.8 27.1 -2.7 9 17.8 N 28 41 15 22 1009.3 1008.7 0.0
10/10:30am 34.0 25.1 -1.9 10 17.2 N 35 43 19 23 1009.3 1008.7 0.0
10/10:00am 32.5 24.2 -1.7 11 16.2 N 32 44 17 24 1009.5 1008.9 0.0
10/09:30am 31.8 23.4 -2.3 11 16.0 N 32 43 17 23 1009.7 1009.1 0.0
10/09:00am 30.8 22.1 -0.8 13 15.1 N 35 46 19 25 1009.5 1008.9 0.0
10/08:30am 28.9 21.4 -1.2 14 14.1 NNE 28 37 15 20 1009.4 1008.8 0.0
10/08:00am 28.1 21.0 -0.9 15 13.5 NNE 26 35 14 19 1009.2 1008.6 0.0
10/07:30am 27.1 21.9 0.0 17 12.8 NNE 17 28 9 15 1008.7 1008.1 0.0
10/07:00am 25.7 20.4 -0.4 18 12.1 NNE 17 22 9 12 1008.3 1007.6 0.0
10/06:30am 25.2 19.8 -1.6 17 12.1 NNE 17 20 9 11 1007.9 1007.2 0.0
10/06:00am 24.8 19.7 -1.9 17 11.9 NNE 15 19 8 10 1007.5 1006.8 0.0
10/05:30am 24.9 19.7 -2.6 16 12.1 NNE 15 20 8 11 1007.4 1006.7 0.0
10/05:00am 25.4 20.5 -3.1 15 12.5 NNE 13 17 7 9 1007.1 1006.4 0.0
10/04:30am 25.8 20.6 -2.8 15 12.7 NNE 15 20 8 11 1007.0 1006.3 0.0
10/04:00am 26.3 20.7 -3.3 14 13.0 NNE 17 24 9 13 1007.0 1006.3 0.0
10/03:30am 26.9 20.7 -2.8 14 13.3 NNE 20 26 11 14 1006.9 1006.2 0.0
10/03:00am 27.2 20.7 -2.6 14 13.4 NNE 22 30 12 16 1007.0 1006.3 0.0
10/02:30am 27.5 21.1 -1.4 15 13.3 NNE 22 32 12 17 1007.0 1006.3 0.0
10/02:00am 28.0 20.8 -2.0 14 13.7 NE 26 35 14 19 1007.1 1006.4 0.0
10/01:30am 28.4 20.9 -1.6 14 13.9 NE 28 39 15 21 1007.2 1006.5 0.0
10/01:00am 28.9 21.4 -1.2 14 14.0 NE 28 44 15 24 1007.6 1006.9 0.0
10/12:30am 29.4 21.8 -1.9 13 14.5 NE 28 39 15 21 1008.1 1007.4 0.0
10/12:00am 30.0 22.5 -1.4 13 14.7 NE 28 39 15 21 1008.1 1007.4 0.0
 
Date/Time
CDT
Temp
°C
App
Temp
°C
Dew
Point
°C
Rel
Hum
%
Delta-T
°C
Wind Press
QNH
hPa
Press
MSL
hPa
Rain since
9am
mm
Dir  Spd
km/h
Gust
km/h
Spd
kts
Gust
kts
09/11:30pm 30.6 22.6 -2.0 12 15.2 NE 30 43 16 23 1008.2 1007.5 0.0
09/11:00pm 31.3 23.0 -1.5 12 15.5 NE 32 46 17 25 1007.7 1007.0 0.0
09/10:30pm 31.7 25.1 -0.1 13 15.5 ENE 24 33 13 18 1007.5 1006.8 0.0
09/10:00pm 32.1 26.3 0.2 13 15.6 ENE 20 28 11 15 1007.2 1006.5 0.0
09/09:30pm 32.3 27.3 1.4 14 15.5 NNE 17 22 9 12 1007.1 1006.4 0.0
09/09:00pm 32.2 28.1 2.3 15 15.2 NNE 13 15 7 8 1007.1 1006.4 0.0
09/08:30pm 34.3 29.8 2.0 13 16.5 NNE 15 20 8 11 1007.0 1006.3 0.0
09/08:00pm 35.6 30.3 1.8 12 17.3 NNE 19 22 10 12 1006.6 1005.9 0.0
09/07:30pm 36.1 31.2 2.2 12 17.6 N 17 24 9 13 1006.6 1005.9 0.0
09/07:00pm 36.4 32.2 3.6 13 17.4 N 15 26 8 14 1006.3 1005.6 0.0
09/06:30pm 36.7 31.9 2.7 12 17.8 NNE 17 26 9 14 1006.4 1005.7 0.0
09/06:00pm 36.9 32.9 2.8 12 17.9 N 13 26 7 14 1006.4 1005.7 0.0
09/05:30pm 36.9 31.6 2.8 12 17.9 N 20 32 11 17 1006.5 1005.8 0.0
09/05:00pm 37.1 32.4 3.0 12 18.0 NNE 17 33 9 18 1006.9 1006.2 0.0
09/04:30pm 36.0 31.1 2.1 12 17.5 N 17 30 9 16 1007.3 1006.6 0.0
09/04:00pm 36.1 30.7 1.0 11 17.8 N 19 30 10 16 1007.7 1007.0 0.0
09/03:30pm 35.4 29.9 0.5 11 17.5 N 19 28 10 15 1008.2 1007.5 0.0
09/03:00pm 35.3 29.8 0.4 11 17.5 NNE 19 30 10 16 1008.8 1008.2 0.0
09/02:30pm 35.3 29.6 0.4 11 17.5 NNE 20 33 11 18 1009.3 1008.7 0.0
09/02:00pm 34.3 28.5 -0.4 11 17.0 N 20 30 11 16 1009.9 1009.3 0.0
09/01:30pm 34.0 28.1 -0.6 11 16.9 N 20 32 11 17 1010.5 1009.9 0.0
09/01:00pm 33.3 27.6 -1.1 11 16.6 NNE 19 28 10 15 1011.0 1010.4 0.0
09/12:30pm 31.6 25.6 -1.2 12 15.6 NNE 20 32 11 17 1011.1 1010.5 0.0
09/12:00pm 32.3 26.6 -0.7 12 15.9 N 19 30 10 16 1011.5 1010.9 0.0
09/11:30am 30.6 24.8 0.1 14 14.7 NNE 20 35 11 19 1011.7 1011.1 0.0
09/11:00am 29.0 23.1 1.5 17 13.5 N 22 32 12 17 1012.5 1011.8 0.0
09/10:30am 27.6 22.2 2.6 20 12.4 N 20 32 11 17 1012.5 1011.8 0.0
09/10:00am 26.3 20.6 2.9 22 11.5 NNE 22 32 12 17 1012.5 1011.8 0.0
09/09:30am 25.1 18.6 2.5 23 11.0 NNE 26 37 14 20 1012.7 1012.0 0.0
09/09:00am 24.2 18.9 2.9 25 10.3 NNE 20 26 11 14 1012.8 1012.1 0.0
09/08:30am 23.6 18.2 2.4 25 10.2 NNE 20 28 11 15 1012.9 1012.2 0.0
09/08:00am 23.3 17.8 1.6 24 10.2 NNE 20 28 11 15 1012.0 1011.3 0.0
09/07:30am 22.4 17.9 2.0 26 9.6 N 15 20 8 11 1011.4 1010.8 0.0
09/07:00am 21.7 17.1 1.4 26 9.4 N 15 19 8 10 1011.3 1010.7 0.0
09/06:30am 22.2 16.6 0.1 23 10.0 NNE 19 26 10 14 1011.5 1010.9 0.0
09/06:00am 22.5 16.6 -0.9 21 10.4 NE 20 30 11 16 1011.1 1010.5 0.0
09/05:30am 22.7 16.1 -0.7 21 10.5 NNE 24 35 13 19 1010.0 1009.4 0.0
09/05:00am 22.2 16.1 0.7 24 9.9 N 22 32 12 17 1010.7 1010.1 0.0
09/04:30am 21.8 12.6 1.5 26 9.4 NNE 39 54 21 29 1009.1 1008.5 0.0
09/04:24am 22.6 14.2 -0.8 21 10.5 NNE 33 54 18 29 1009.2 1008.6 0.0
09/04:00am 22.2 13.9 -0.5 22 10.2 NE 33 43 18 23 1010.2 1009.6 0.0
09/03:48am 21.7 14.8 0.3 24 9.7 ENE 26 35 14 19 1011.3 1010.7 0.0
09/03:30am 21.2 15.8 1.5 27 9.1 E 19 26 10 14 1013.4 1012.7 0.0
09/03:28am 21.4 16.0 1.1 26 9.3 ESE 19 24 10 13 1013.7 1013.0 0.0
09/03:00am 21.5 15.9 0.1 24 9.6 SSW 19 26 10 14 1015.8 1015.2 0.0
09/02:30am 21.8 17.4 0.4 24 9.7 SE 13 20 7 11 1013.8 1013.1 0.0
09/02:00am 22.2 17.0 0.1 23 10.0 SE 17 24 9 13 1013.0 1012.3 0.0
09/01:30am 22.4 16.8 0.9 24 9.9 SE 20 26 11 14 1013.0 1012.3 0.0
09/01:00am 22.8 17.6 0.0 22 10.4 ENE 17 24 9 13 1013.3 1012.6 0.0
09/12:30am 23.2 18.5 -1.7 19 11.0 ENE 13 17 7 9 1013.6 1012.9 0.0
09/12:00am 22.8 17.1 -0.6 21 10.5 ENE 19 24 10 13 1012.6 1011.9 0.0
 
Date/Time
CDT
Temp
°C
App
Temp
°C
Dew
Point
°C
Rel
Hum
%
Delta-T
°C
Wind Press
QNH
hPa
Press
MSL
hPa
Rain since
9am
mm
Dir  Spd
km/h
Gust
km/h
Spd
kts
Gust
kts
08/11:30pm 23.5 18.6 -3.7 16 11.6 ENE 13 17 7 9 1014.0 1013.3 0.0
08/11:00pm 23.7 18.4 -3.6 16 11.7 ENE 15 20 8 11 1013.9 1013.2 0.0
08/10:30pm 23.9 18.2 -3.4 16 11.7 ENE 17 24 9 13 1013.9 1013.2 0.0
08/10:00pm 24.1 19.1 -4.1 15 12.0 SSE 13 19 7 10 1014.4 1013.7 0.0
08/09:30pm 24.2 19.4 -5.9 13 12.4 SSE 11 13 6 7 1014.7 1014.0 0.0
08/09:00pm 24.5 20.0 -6.7 12 12.7 SSE 9 13 5 7 1015.2 1014.5 0.0
08/08:30pm 24.7 19.5 -6.6 12 12.8 SSE 13 17 7 9 1014.6 1013.9 0.0
08/08:00pm 25.0 19.0 -6.3 12 12.9 SSE 17 20 9 11 1015.0 1014.3 0.0
08/07:30pm 25.3 19.8 -5.1 13 12.8 SSE 15 22 8 12 1014.9 1014.2 0.0
08/07:00pm 25.6 19.9 -3.8 14 12.7 SSE 17 20 9 11 1014.0 1013.3 0.0
08/06:30pm 26.0 20.1 -2.6 15 12.7 SSE 19 22 10 12 1013.4 1012.7 0.0
08/06:00pm 26.3 20.4 -2.4 15 12.8 SSE 19 24 10 13 1013.4 1012.7 0.0
08/05:30pm 26.6 22.0 -1.3 16 12.8 S 13 20 7 11 1013.9 1013.2 0.0
08/05:00pm 26.8 22.2 -1.1 16 12.8 NNE 13 20 7 11 1014.1 1013.4 0.0
08/04:30pm 26.8 23.0 -1.1 16 12.8 E 9 17 5 9 1013.7 1013.0 0.0
08/04:00pm 26.7 21.4 -0.3 17 12.6 E 17 28 9 15 1013.5 1012.8 0.0
08/03:30pm 26.2 20.5 -0.8 17 12.4 SE 19 28 10 15 1014.1 1013.4 0.0
08/03:00pm 27.2 22.8 0.1 17 12.8 E 13 22 7 12 1014.9 1014.2 0.0
08/02:30pm 26.2 21.7 0.0 18 12.2 ESE 13 24 7 13 1015.4 1014.7 0.0
08/02:00pm 25.0 20.2 0.5 20 11.4 E 15 26 8 14 1015.8 1015.2 0.0
08/01:30pm 24.9 19.5 1.1 21 11.2 ESE 19 28 10 15 1015.9 1015.3 0.0
08/01:00pm 23.7 17.8 1.4 23 10.5 SE 22 32 12 17 1016.2 1015.6 0.0
08/12:30pm 23.6 19.1 2.4 25 10.1 E 15 28 8 15 1016.7 1016.1 0.0
08/12:00pm 22.3 17.2 2.9 28 9.3 ESE 19 26 10 14 1017.1 1016.5 0.0
08/11:30am 22.3 16.9 4.4 31 8.8 ESE 22 33 12 18 1017.0 1016.4 0.0
08/11:00am 20.8 15.5 4.8 35 7.9 ESE 22 28 12 15 1017.7 1017.1 0.0
08/10:30am 19.8 14.1 5.1 38 7.2 ESE 24 35 13 19 1017.4 1016.8 0.0
08/10:00am 18.9 13.0 5.7 42 6.5 SE 26 33 14 18 1017.8 1017.2 0.0
08/09:30am 18.5 13.0 5.7 43 6.3 E 24 33 13 18 1017.8 1017.2 0.0
08/09:00am 17.2 11.4 6.1 48 5.4 E 26 33 14 18 1017.9 1017.3 0.0
08/08:30am 16.3 10.8 5.9 50 5.0 ESE 24 32 13 17 1018.0 1017.4 0.0
08/08:00am 15.3 9.4 5.8 53 4.6 ESE 26 35 14 19 1017.6 1017.0 0.0
08/07:30am 14.5 9.4 5.8 56 4.2 SE 22 32 12 17 1017.3 1016.7 0.0
08/07:00am 13.6 9.5 6.0 60 3.6 SE 17 24 9 13 1017.0 1016.4 0.0
08/06:30am 10.3 7.6 5.7 73 2.1 S 9 9 5 5 1017.2 1016.6 0.0
08/06:00am 10.6 7.9 5.8 72 2.2 S 9 9 5 5 1017.0 1016.4 0.0
08/05:30am 11.6 9.0 6.3 70 2.5 S 9 11 5 6 1016.4 1015.8 0.0
08/05:00am 12.1 9.6 6.4 68 2.7 S 9 13 5 7 1016.3 1015.7 0.0
08/04:30am 12.6 9.7 6.6 67 2.9 S 11 15 6 8 1016.3 1015.7 0.0
08/04:00am 13.0 10.1 6.6 65 3.1 S 11 15 6 8 1016.2 1015.6 0.0
08/03:30am 13.6 10.4 6.7 63 3.3 S 13 17 7 9 1016.2 1015.6 0.0
08/03:00am 14.1 10.9 6.7 61 3.6 SSW 13 17 7 9 1016.5 1015.9 0.0
08/02:30am 14.7 11.0 6.5 58 4.0 S 15 20 8 11 1016.6 1016.0 0.0
08/02:00am 15.2 11.6 6.7 57 4.2 SSW 15 20 8 11 1016.7 1016.1 0.0
08/01:30am 15.9 12.0 6.9 55 4.4 S 17 26 9 14 1016.9 1016.3 0.0
08/01:00am 16.0 12.8 6.7 54 4.6 SSW 13 17 7 9 1017.0 1016.4 0.0
08/12:30am 16.6 12.7 7.0 53 4.8 SSW 17 20 9 11 1017.1 1016.5 0.0
08/12:00am 17.1 13.6 7.2 52 5.0 SSW 15 20 8 11 1017.3 1016.7 0.0
 
Date/Time
CDT
Temp
°C
App
Temp
°C
Dew
Point
°C
Rel
Hum
%
Delta-T
°C
Wind Press
QNH
hPa
Press
MSL
hPa
Rain since
9am
mm
Dir  Spd
km/h
Gust
km/h
Spd
kts
Gust
kts
07/11:30pm 18.0 13.7 6.8 48 5.6 SSW 19 28 10 15 1017.2 1016.6 0.0
07/11:00pm 18.4 14.1 7.2 48 5.7 SSW 19 28 10 15 1017.0 1016.4 0.0
07/10:30pm 18.9 14.3 6.7 45 6.1 SSW 20 30 11 16 1016.6 1016.0 0.0
07/10:00pm 19.5 14.0 5.9 41 6.8 SSW 24 35 13 19 1016.3 1015.7 0.0
07/09:30pm 20.4 14.0 5.2 37 7.5 SSW 28 43 15 23 1015.6 1015.0 0.0
07/09:00pm 21.2 15.0 4.3 33 8.2 SSW 26 37 14 20 1015.1 1014.4 0.0
07/08:30pm 22.3 15.6 3.4 29 9.1 SSW 28 41 15 22 1014.7 1014.0 0.0
07/08:00pm 23.6 16.4 3.0 26 10.0 SSW 30 39 16 21 1014.3 1013.6 0.0
07/07:30pm 24.9 17.3 3.0 24 10.7 SSW 32 41 17 22 1013.7 1013.0 0.0
07/07:00pm 26.0 19.5 2.7 22 11.4 SSW 26 39 14 21 1013.3 1012.6 0.0
07/06:30pm 27.0 20.1 2.8 21 12.0 SSW 28 37 15 20 1012.8 1012.1 0.0
07/06:00pm 27.3 20.0 2.4 20 12.2 SSW 30 41 16 22 1012.8 1012.1 0.0
07/05:32pm 27.5 20.3 3.2 21 12.1 SSW 30 50 16 27 1012.7 1012.0 0.0
07/05:30pm 27.2 20.4 3.0 21 12.0 SSW 28 50 15 27 1012.7 1012.0 0.0
07/05:00pm 27.5 20.9 1.8 19 12.5 S 26 41 14 22 1012.7 1012.0 0.0
07/04:58pm 27.7 20.7 2.0 19 12.6 SSW 28 52 15 28 1012.8 1012.1 0.0
07/04:30pm 28.1 21.5 2.3 19 12.7 SSW 26 41 14 22 1012.7 1012.0 0.0
07/04:00pm 27.7 21.0 3.4 21 12.2 SSW 28 44 15 24 1012.8 1012.1 0.0
07/03:43pm 27.7 21.1 4.1 22 12.0 SSW 28 46 15 25 1012.8 1012.1 0.0
07/03:30pm 26.8 21.1 5.1 25 11.2 S 24 41 13 22 1012.9 1012.2 0.0

Other formats

Comma delimited format used in spreadsheet applications
http://www.bom.gov.au/fwo/IDS60801/IDS60801.94655.axf

JavaScript Object Notation format (JSON) in row-major order
http://www.bom.gov.au/fwo/IDS60801/IDS60801.94655.json

Data quality

Most of these data are generated automatically and are frequently updated. Quality checks on data are not normally performed. It is possible for incorrect values to appear. Refer to information at About Latest Weather Observations and please check the disclaimer before using these data.